Time;durP1;ratioP1;P1;durP2;ratioP2;P2;SDS_P1;SDS_P2;PMS_P1;PMS_P2;Temp;Humidity;BMP_temperature;BMP_pressure;BME280_temperature;BME280_humidity;BME280_pressure;Samples;Min_cycle;Max_cycle;Signal;HPM_P1;HPM_P2
2022/05/01 00:02:27;;;;;;;10.50;6.23;;;10.00;99.90;;;;;;5069661;28;20235;-51
2022/05/01 00:04:58;;;;;;;9.93;6.30;;;10.00;99.90;;;;;;5070298;28;20203;-51
2022/05/01 00:07:26;;;;;;;9.53;6.53;;;10.10;99.90;;;;;;5070608;28;20205;-51
2022/05/01 00:09:54;;;;;;;8.13;6.33;;;10.00;99.90;;;;;;5070323;28;20748;-51
2022/05/01 00:12:22;;;;;;;8.90;6.17;;;10.00;99.90;;;;;;5069715;28;20258;-51
2022/05/01 00:14:51;;;;;;;8.43;6.53;;;10.00;99.90;;;;;;5069816;28;20697;-51
2022/05/01 00:17:19;;;;;;;7.90;6.50;;;10.00;99.90;;;;;;5070348;28;20224;-51
2022/05/01 00:19:47;;;;;;;8.53;6.73;;;10.00;99.90;;;;;;5070950;28;20205;-51
2022/05/01 00:22:21;;;;;;;11.80;7.40;;;10.00;99.90;;;;;;5070212;28;20244;-51
2022/05/01 00:24:49;;;;;;;9.13;7.23;;;10.00;99.90;;;;;;5070466;28;20733;-51
2022/05/01 00:27:18;;;;;;;11.40;7.10;;;10.10;99.90;;;;;;5070876;28;20236;-51
2022/05/01 00:29:46;;;;;;;11.93;6.93;;;10.10;99.90;;;;;;5070940;28;20213;-51
2022/05/01 00:32:15;;;;;;;8.50;7.03;;;10.10;99.90;;;;;;5070389;28;20288;-50
2022/05/01 00:37:30;;;;;;;11.07;6.70;;;10.10;99.90;;;;;;5070537;28;20216;-51
2022/05/01 00:40:01;;;;;;;11.47;6.80;;;10.00;99.90;;;;;;5070737;28;20677;-51
2022/05/01 00:42:37;;;;;;;7.73;6.87;;;10.00;99.90;;;;;;5070336;28;20200;-49
2022/05/01 00:45:07;;;;;;;9.80;6.90;;;10.10;99.90;;;;;;5070724;28;20246;-52
2022/05/01 00:47:36;;;;;;;12.20;7.40;;;10.10;99.90;;;;;;5070425;28;20219;-51
2022/05/01 00:50:04;;;;;;;7.93;7.10;;;10.10;99.90;;;;;;5070597;28;20208;-51
2022/05/01 00:52:34;;;;;;;11.00;6.80;;;10.00;99.90;;;;;;5070083;28;20255;-50
2022/05/01 00:55:02;;;;;;;8.40;6.90;;;10.00;99.90;;;;;;5070547;28;20221;-51
2022/05/01 00:57:30;;;;;;;7.87;6.50;;;10.00;99.90;;;;;;5071002;28;20201;-50
2022/05/01 00:59:58;;;;;;;9.53;6.63;;;10.00;99.90;;;;;;5070469;28;20208;-51
2022/05/01 01:02:26;;;;;;;10.73;8.17;;;10.00;99.90;;;;;;5069958;28;20209;-51
2022/05/01 01:04:55;;;;;;;10.77;7.50;;;10.10;99.90;;;;;;5070368;28;20205;-51
2022/05/01 01:07:23;;;;;;;8.67;6.63;;;10.00;99.90;;;;;;5069898;28;20228;-51
2022/05/01 01:09:53;;;;;;;7.63;6.40;;;10.00;99.90;;;;;;5070527;28;20270;-51
2022/05/01 01:15:09;;;;;;;10.40;6.93;;;10.10;99.90;;;;;;5071561;28;20213;-51
2022/05/01 01:17:41;;;;;;;10.13;7.00;;;10.00;99.90;;;;;;5073978;28;20205;-51
2022/05/01 01:20:13;;;;;;;11.43;6.63;;;10.10;99.90;;;;;;5074493;28;20185;-51
2022/05/01 01:22:44;;;;;;;7.40;6.60;;;10.10;99.90;;;;;;5073633;28;20258;-51
2022/05/01 01:25:13;;;;;;;10.47;6.50;;;10.00;99.90;;;;;;5074143;28;20626;-50
2022/05/01 01:27:42;;;;;;;10.43;6.27;;;10.10;99.90;;;;;;5073556;28;20749;-50
2022/05/01 01:32:57;;;;;;;9.33;6.57;;;10.00;99.90;;;;;;5073636;28;20239;-50
2022/05/01 01:35:27;;;;;;;8.30;6.70;;;10.10;99.90;;;;;;5073541;28;20267;-51
2022/05/01 01:37:57;;;;;;;13.37;6.57;;;10.10;99.90;;;;;;5074981;28;20215;-50
2022/05/01 01:40:30;;;;;;;8.80;6.93;;;10.10;99.90;;;;;;5074868;28;20189;-51
2022/05/01 01:42:59;;;;;;;10.23;6.90;;;10.10;99.90;;;;;;5066727;28;20262;-50
2022/05/01 01:45:29;;;;;;;11.80;6.03;;;10.10;99.90;;;;;;5073499;28;20213;-50
2022/05/01 01:48:08;;;;;;;13.07;6.40;;;10.00;99.90;;;;;;5073161;28;20290;-50
2022/05/01 01:50:37;;;;;;;8.87;6.13;;;10.00;99.90;;;;;;5073730;28;20267;-50
2022/05/01 01:53:07;;;;;;;9.87;6.63;;;10.10;99.90;;;;;;5072656;28;20205;-50
2022/05/01 01:55:37;;;;;;;8.43;6.47;;;10.10;99.90;;;;;;5073460;28;20229;-51
2022/05/01 01:58:06;;;;;;;11.23;6.10;;;10.10;99.90;;;;;;5073495;28;20224;-51
2022/05/01 02:00:34;;;;;;;13.30;6.50;;;10.10;99.90;;;;;;5073714;28;20262;-51
2022/05/01 02:03:05;;;;;;;10.20;6.33;;;10.10;99.90;;;;;;5072455;28;20215;-51
2022/05/01 02:05:35;;;;;;;7.23;6.40;;;10.10;99.90;;;;;;5073321;28;20229;-50
2022/05/01 02:08:05;;;;;;;8.03;6.47;;;10.00;99.90;;;;;;5072790;28;20739;-51
2022/05/01 02:10:35;;;;;;;8.33;6.70;;;10.00;99.90;;;;;;5073266;28;20209;-51
2022/05/01 02:13:04;;;;;;;8.43;6.60;;;10.00;99.90;;;;;;5072892;28;20256;-51
2022/05/01 02:15:33;;;;;;;10.10;7.00;;;10.00;99.90;;;;;;5071949;28;20232;-51
2022/05/01 02:18:01;;;;;;;8.87;6.17;;;10.00;99.90;;;;;;5069301;28;20197;-51
2022/05/01 02:21:34;;;;;;;8.60;6.50;;;10.00;99.90;;;;;;5070000;28;20253;-51
2022/05/01 02:23:21;;;;;;;10.73;6.67;;;10.10;99.90;;;;;;5068897;28;20258;-51
2022/05/01 02:25:51;;;;;;;11.27;6.90;;;10.00;99.90;;;;;;5068284;28;20278;-51
2022/05/01 02:28:26;;;;;;;9.07;6.63;;;10.00;99.90;;;;;;5070686;28;20288;-50
2022/05/01 02:30:54;;;;;;;9.43;6.70;;;10.00;99.90;;;;;;5070250;28;20208;-51
2022/05/01 02:33:22;;;;;;;10.93;6.47;;;10.00;99.90;;;;;;5071374;28;20230;-51
2022/05/01 02:35:50;;;;;;;9.03;6.53;;;9.90;99.90;;;;;;5070302;28;20697;-51
2022/05/01 02:38:19;;;;;;;9.03;6.93;;;9.90;99.90;;;;;;5069149;28;21090;-51
2022/05/01 02:40:49;;;;;;;9.93;6.97;;;9.90;99.90;;;;;;5072675;28;20209;-51
2022/05/01 02:43:49;;;;;;;11.27;7.37;;;10.00;99.90;;;;;;5071570;28;20193;-51
2022/05/01 02:46:24;;;;;;;8.70;6.90;;;9.90;99.90;;;;;;5071299;28;20225;-51
2022/05/01 02:48:52;;;;;;;8.83;6.60;;;9.90;99.90;;;;;;5072519;28;20210;-50
2022/05/01 02:51:20;;;;;;;7.87;6.43;;;9.90;99.90;;;;;;5072607;28;20216;-50
2022/05/01 02:53:48;;;;;;;12.10;7.10;;;9.90;99.90;;;;;;5071621;28;20209;-50
2022/05/01 02:56:17;;;;;;;9.97;6.80;;;9.90;99.90;;;;;;5071978;28;20225;-51
2022/05/01 02:58:46;;;;;;;10.33;7.20;;;9.90;99.90;;;;;;5072385;28;20250;-50
2022/05/01 03:01:14;;;;;;;9.23;6.97;;;9.90;99.90;;;;;;5072413;28;20205;-50
2022/05/01 03:03:42;;;;;;;12.90;7.10;;;9.80;99.90;;;;;;5071824;28;20287;-50
2022/05/01 03:06:11;;;;;;;12.83;7.47;;;9.80;99.90;;;;;;5071935;28;20232;-51
2022/05/01 03:08:38;;;;;;;13.73;7.43;;;9.80;99.90;;;;;;5068720;28;20208;-51
2022/05/01 03:11:06;;;;;;;8.83;6.83;;;9.80;99.90;;;;;;5072138;28;20213;-51
2022/05/01 03:13:34;;;;;;;9.10;7.10;;;9.80;99.90;;;;;;5071575;28;20209;-51
2022/05/01 03:16:04;;;;;;;10.80;7.53;;;9.80;99.90;;;;;;5071324;28;20232;-51
2022/05/01 03:24:03;;;;;;;11.53;7.17;;;9.80;99.90;;;;;;5070643;28;20212;-51
2022/05/01 03:26:31;;;;;;;9.07;7.13;;;9.80;99.90;;;;;;5071702;28;20282;-50
2022/05/01 03:29:00;;;;;;;9.03;6.93;;;9.80;99.90;;;;;;5071181;28;20256;-51
2022/05/01 03:31:29;;;;;;;9.77;7.23;;;9.80;99.90;;;;;;5071799;28;20213;-51
2022/05/01 03:33:58;;;;;;;10.23;7.10;;;9.80;99.90;;;;;;5070808;28;20749;-50
2022/05/01 03:36:26;;;;;;;9.93;7.10;;;9.80;99.90;;;;;;5071758;28;20298;-50
2022/05/01 03:38:55;;;;;;;13.13;7.60;;;9.80;99.90;;;;;;5070974;28;20210;-51
2022/05/01 03:41:23;;;;;;;10.40;6.70;;;9.80;99.90;;;;;;5071342;28;20678;-50
2022/05/01 03:43:51;;;;;;;8.80;6.60;;;9.80;99.90;;;;;;5070347;28;20698;-50
2022/05/01 03:46:23;;;;;;;11.63;7.10;;;9.80;99.90;;;;;;5056547;28;20221;-50
2022/05/01 03:48:53;;;;;;;10.90;6.97;;;9.70;99.90;;;;;;5051692;28;20205;-51
2022/05/01 03:51:21;;;;;;;8.40;6.43;;;9.70;99.90;;;;;;5051351;28;20205;-50
2022/05/01 03:53:49;;;;;;;10.33;7.17;;;9.70;99.90;;;;;;5070569;28;20208;-50
2022/05/01 03:56:17;;;;;;;11.00;7.37;;;9.70;99.90;;;;;;5071162;28;20228;-51
2022/05/01 03:58:45;;;;;;;9.47;7.17;;;9.70;99.90;;;;;;5071142;28;20208;-51
2022/05/01 04:01:13;;;;;;;9.00;6.50;;;9.70;99.90;;;;;;5071543;28;20254;-50
2022/05/01 04:03:42;;;;;;;8.43;6.63;;;9.80;99.90;;;;;;5070267;28;20739;-50
2022/05/01 04:06:11;;;;;;;7.67;6.83;;;9.80;99.90;;;;;;5070643;28;20737;-51
2022/05/01 04:08:41;;;;;;;10.83;7.13;;;9.80;99.90;;;;;;5070648;28;20610;-50
2022/05/01 04:11:09;;;;;;;13.73;7.40;;;9.80;99.90;;;;;;5071194;28;20231;-51
2022/05/01 04:13:37;;;;;;;8.03;6.43;;;9.80;99.90;;;;;;5070874;28;20730;-51
2022/05/01 04:16:06;;;;;;;10.10;7.07;;;9.80;99.90;;;;;;5070329;28;20701;-49
2022/05/01 04:18:34;;;;;;;8.70;6.93;;;9.80;99.90;;;;;;5071088;28;20250;-51
2022/05/01 04:21:02;;;;;;;9.33;6.97;;;9.80;99.90;;;;;;5070991;28;20263;-50
2022/05/01 04:23:32;;;;;;;7.73;6.90;;;9.80;99.90;;;;;;5070559;28;20215;-51
2022/05/01 04:26:00;;;;;;;13.47;7.30;;;9.80;99.90;;;;;;5070694;28;20243;-51
2022/05/01 04:31:27;;;;;;;9.47;7.33;;;9.70;99.90;;;;;;5070952;28;20210;-49
2022/05/01 04:34:02;;;;;;;9.93;7.43;;;9.70;99.90;;;;;;5065756;28;20204;-50
2022/05/01 04:36:31;;;;;;;9.00;7.20;;;9.70;99.90;;;;;;5059251;28;20236;-48
2022/05/01 04:39:00;;;;;;;10.17;7.43;;;9.70;99.90;;;;;;5066456;28;20330;-50
2022/05/01 04:41:29;;;;;;;11.30;7.77;;;9.70;99.90;;;;;;5070771;28;20731;-50
2022/05/01 04:43:58;;;;;;;11.90;7.30;;;9.70;99.90;;;;;;5070139;28;20208;-51
2022/05/01 04:46:35;;;;;;;9.40;7.97;;;9.70;99.90;;;;;;5070365;28;20217;-50
2022/05/01 04:49:41;;;;;;;10.33;7.30;;;9.70;99.90;;;;;;5072170;28;20205;-50
2022/05/01 04:52:26;;;;;;;10.37;7.40;;;9.70;99.90;;;;;;4983685;28;20212;-51
2022/05/01 04:54:56;;;;;;;11.20;8.10;;;9.70;99.90;;;;;;4992384;28;20203;-52
2022/05/01 04:57:24;;;;;;;12.83;8.27;;;9.70;99.90;;;;;;4992453;28;20274;-52
2022/05/01 04:59:52;;;;;;;9.60;8.27;;;9.70;99.90;;;;;;4992577;28;20351;-52
2022/05/01 05:02:21;;;;;;;10.23;7.90;;;9.80;99.90;;;;;;4991854;28;20207;-50
2022/05/01 05:04:50;;;;;;;9.67;7.60;;;9.80;99.90;;;;;;4992402;28;20217;-50
2022/05/01 05:07:19;;;;;;;12.97;8.10;;;9.80;99.90;;;;;;4990058;28;20653;-51
2022/05/01 05:09:55;;;;;;;8.90;7.20;;;9.80;99.90;;;;;;4991676;28;20266;-51
2022/05/01 05:12:24;;;;;;;9.10;7.63;;;9.80;99.90;;;;;;4992035;28;20262;-52
2022/05/01 05:14:55;;;;;;;11.90;8.87;;;9.80;99.90;;;;;;4991987;28;20208;-50
2022/05/01 05:17:23;;;;;;;11.13;7.57;;;9.90;99.90;;;;;;4991909;28;20692;-51
2022/05/01 05:19:52;;;;;;;9.23;7.90;;;10.00;99.90;;;;;;4992158;28;20211;-51
2022/05/01 05:22:20;;;;;;;10.37;7.97;;;10.00;99.90;;;;;;4991557;28;20298;-51
2022/05/01 05:24:48;;;;;;;10.63;8.23;;;10.00;99.90;;;;;;4991945;28;20212;-51
2022/05/01 05:27:17;;;;;;;11.10;8.30;;;10.00;99.90;;;;;;4992104;28;20251;-51
2022/05/01 05:29:47;;;;;;;11.03;8.17;;;10.00;99.90;;;;;;5032421;28;20259;-51
2022/05/01 05:32:16;;;;;;;11.23;8.23;;;10.10;99.90;;;;;;5073236;28;20292;-51
2022/05/01 05:34:44;;;;;;;12.23;8.97;;;10.10;99.90;;;;;;5073871;28;20208;-51
2022/05/01 05:37:12;;;;;;;13.07;8.80;;;10.10;99.90;;;;;;5072827;28;20228;-51
2022/05/01 05:39:40;;;;;;;11.17;8.40;;;10.20;99.90;;;;;;5073586;28;20209;-50
2022/05/01 05:42:09;;;;;;;10.73;9.00;;;10.20;99.90;;;;;;5072017;28;20243;-50
2022/05/01 05:44:39;;;;;;;18.00;9.23;;;10.20;99.90;;;;;;5070444;28;20198;-51
2022/05/01 05:47:09;;;;;;;9.80;8.30;;;10.20;99.90;;;;;;5072454;28;20216;-51
2022/05/01 05:49:37;;;;;;;9.33;8.40;;;10.20;99.90;;;;;;5070024;28;20559;-51
2022/05/01 05:52:06;;;;;;;12.40;8.43;;;10.20;99.90;;;;;;5069703;28;20208;-50
2022/05/01 05:54:34;;;;;;;12.53;8.67;;;10.30;99.90;;;;;;5072430;28;20202;-51
2022/05/01 05:57:02;;;;;;;10.40;8.63;;;10.30;99.90;;;;;;5072435;28;20232;-50
2022/05/01 05:59:30;;;;;;;12.33;8.50;;;10.30;99.90;;;;;;5070358;28;20271;-50
2022/05/01 06:01:59;;;;;;;10.23;8.67;;;10.30;99.90;;;;;;5068257;28;20266;-51
2022/05/01 06:04:29;;;;;;;12.37;9.00;;;10.30;99.90;;;;;;5073109;28;20275;-50
2022/05/01 06:06:57;;;;;;;11.17;8.07;;;10.30;99.90;;;;;;5070056;28;20225;-50
2022/05/01 06:09:25;;;;;;;12.00;8.53;;;10.40;99.90;;;;;;5073267;28;20211;-49
2022/05/01 06:11:53;;;;;;;11.57;8.00;;;10.40;99.90;;;;;;5072373;28;20197;-51
2022/05/01 06:14:21;;;;;;;10.20;8.20;;;10.50;99.90;;;;;;5071315;28;20837;-49
2022/05/01 06:16:50;;;;;;;13.33;8.37;;;10.50;99.90;;;;;;5072732;28;20233;-50
2022/05/01 06:19:18;;;;;;;11.90;8.60;;;10.50;99.90;;;;;;5072757;28;20200;-50
2022/05/01 06:21:47;;;;;;;10.57;8.77;;;10.60;99.90;;;;;;5072437;28;20209;-49
2022/05/01 06:24:15;;;;;;;9.80;8.13;;;10.60;99.90;;;;;;5067349;28;20205;-51
2022/05/01 06:26:43;;;;;;;13.00;8.87;;;10.60;99.90;;;;;;5061720;28;20246;-50
2022/05/01 06:29:12;;;;;;;10.10;8.00;;;10.60;99.90;;;;;;5071942;28;20208;-50
2022/05/01 06:31:40;;;;;;;11.27;8.80;;;10.70;99.90;;;;;;5072785;28;20262;-51
2022/05/01 06:34:12;;;;;;;10.53;8.27;;;10.70;99.90;;;;;;5072257;28;20262;-50
2022/05/01 06:36:40;;;;;;;9.73;8.53;;;10.70;99.90;;;;;;5072222;28;20224;-50
2022/05/01 06:39:11;;;;;;;11.10;8.50;;;10.80;99.90;;;;;;5072024;28;20221;-50
2022/05/01 06:41:39;;;;;;;10.33;7.67;;;10.90;99.90;;;;;;5069132;28;20201;-51
2022/05/01 06:44:07;;;;;;;10.43;7.63;;;11.00;99.90;;;;;;5071652;28;20209;-50
2022/05/01 06:46:35;;;;;;;11.23;7.83;;;11.00;99.90;;;;;;5072117;28;20221;-50
2022/05/01 06:49:04;;;;;;;10.87;8.00;;;11.00;99.90;;;;;;5072377;28;20229;-51
2022/05/01 06:51:32;;;;;;;8.90;7.50;;;11.20;99.90;;;;;;5072063;28;20194;-51
2022/05/01 06:54:00;;;;;;;11.50;8.33;;;11.20;99.90;;;;;;5071361;28;20213;-51
2022/05/01 06:56:29;;;;;;;11.27;8.03;;;11.20;99.90;;;;;;5072446;28;20217;-50
2022/05/01 06:58:57;;;;;;;11.37;7.80;;;11.30;99.90;;;;;;5071954;28;20236;-50
2022/05/01 07:01:25;;;;;;;9.67;7.57;;;11.30;99.90;;;;;;5072232;28;20201;-50
2022/05/01 07:03:54;;;;;;;9.13;7.93;;;11.30;99.90;;;;;;5071355;28;20296;-51
2022/05/01 07:06:22;;;;;;;15.50;9.97;;;11.40;99.90;;;;;;5072019;28;20310;-50
2022/05/01 07:08:50;;;;;;;12.03;8.50;;;11.40;99.90;;;;;;5071603;28;20688;-51
2022/05/01 07:11:19;;;;;;;11.40;8.47;;;11.50;99.90;;;;;;5072307;28;20437;-50
2022/05/01 07:13:48;;;;;;;9.90;7.70;;;11.50;99.90;;;;;;5071130;28;20743;-51
2022/05/01 07:16:19;;;;;;;9.00;6.87;;;11.50;99.90;;;;;;5072569;28;20274;-51
2022/05/01 07:18:48;;;;;;;9.33;8.00;;;11.50;99.90;;;;;;5070570;28;20237;-51
2022/05/01 07:21:16;;;;;;;13.00;7.80;;;11.60;99.90;;;;;;5083945;28;20228;-51
2022/05/01 07:23:44;;;;;;;11.57;7.93;;;11.70;99.90;;;;;;5063616;28;20208;-51
2022/05/01 07:26:12;;;;;;;10.80;8.23;;;11.70;99.90;;;;;;5071008;28;20229;-51
2022/05/01 07:28:40;;;;;;;9.07;7.83;;;11.70;99.90;;;;;;5070436;28;20209;-50
2022/05/01 07:31:10;;;;;;;10.33;7.67;;;11.60;99.90;;;;;;5071009;28;20216;-50
2022/05/01 07:33:38;;;;;;;10.77;8.63;;;11.70;99.90;;;;;;5069961;28;20211;-50
2022/05/01 07:36:07;;;;;;;11.13;8.20;;;11.70;99.90;;;;;;5071280;28;20784;-51
2022/05/01 07:38:35;;;;;;;10.60;7.23;;;11.60;99.90;;;;;;5070097;28;20224;-50
2022/05/01 07:41:04;;;;;;;9.47;7.07;;;11.60;99.90;;;;;;5066561;28;20216;-50
2022/05/01 07:43:32;;;;;;;9.97;7.23;;;11.60;99.90;;;;;;5069458;28;20736;-50
2022/05/01 07:46:00;;;;;;;10.20;8.00;;;11.70;99.90;;;;;;5070401;28;20594;-50
2022/05/01 07:48:30;;;;;;;11.30;7.40;;;11.70;99.90;;;;;;5070823;28;20212;-50
2022/05/01 07:50:58;;;;;;;9.83;7.40;;;11.80;99.90;;;;;;5072698;28;20208;-51
2022/05/01 07:53:26;;;;;;;8.50;6.63;;;11.80;99.90;;;;;;5072655;28;20213;-50
2022/05/01 07:55:56;;;;;;;10.87;6.93;;;11.80;99.90;;;;;;5070452;28;20233;-49
2022/05/01 07:58:26;;;;;;;9.57;6.97;;;11.70;99.90;;;;;;5070507;28;20243;-50
2022/05/01 08:00:58;;;;;;;15.27;11.67;;;11.70;99.90;;;;;;5070477;28;20696;-51
2022/05/01 08:06:14;;;;;;;10.87;8.47;;;11.70;99.90;;;;;;5070581;28;20236;-49
2022/05/01 08:08:42;;;;;;;9.63;7.33;;;11.80;99.90;;;;;;5069593;28;20197;-51
2022/05/01 08:11:13;;;;;;;23.23;18.57;;;11.80;99.90;;;;;;5070534;28;20205;-51
2022/05/01 08:13:41;;;;;;;10.50;7.40;;;11.90;99.90;;;;;;5069157;28;20714;-50
2022/05/01 08:16:10;;;;;;;20.67;17.70;;;12.00;99.90;;;;;;5069703;28;20646;-51
2022/05/01 08:21:25;;;;;;;11.50;7.23;;;12.00;99.90;;;;;;5070122;28;20213;-51
2022/05/01 08:23:53;;;;;;;11.57;7.27;;;12.00;99.90;;;;;;5069500;28;20209;-51
2022/05/01 08:26:22;;;;;;;10.47;9.37;;;12.00;99.90;;;;;;5070410;28;20282;-49
2022/05/01 08:28:52;;;;;;;8.13;6.33;;;12.10;99.90;;;;;;5070115;28;20632;-51
2022/05/01 08:31:20;;;;;;;9.63;7.00;;;12.20;99.90;;;;;;5069799;28;20204;-50
2022/05/01 08:33:49;;;;;;;8.53;5.97;;;12.30;99.90;;;;;;5069006;28;20587;-51
2022/05/01 08:36:17;;;;;;;9.33;6.63;;;12.50;99.90;;;;;;5070159;28;20232;-51
2022/05/01 08:38:47;;;;;;;9.07;6.20;;;12.70;99.90;;;;;;5070052;28;20260;-51
2022/05/01 08:41:15;;;;;;;9.00;6.90;;;12.90;99.90;;;;;;5069916;28;20213;-51
2022/05/01 08:43:43;;;;;;;8.37;6.13;;;13.20;99.90;;;;;;5068688;28;20753;-51
2022/05/01 08:46:28;;;;;;;10.13;7.20;;;13.40;99.90;;;;;;5065542;28;20282;-51
2022/05/01 08:49:03;;;;;;;6.80;6.00;;;13.50;99.90;;;;;;5070262;28;20209;-51
2022/05/01 08:51:33;;;;;;;8.27;6.30;;;13.80;99.90;;;;;;5069917;28;20209;-51
2022/05/01 08:54:05;;;;;;;9.03;6.47;;;14.00;99.90;;;;;;5065023;28;20211;-51
2022/05/01 08:56:34;;;;;;;9.90;6.87;;;14.30;99.90;;;;;;5068693;28;20229;-51
2022/05/01 08:59:04;;;;;;;7.97;5.83;;;14.50;99.90;;;;;;5068143;28;20236;-51
2022/05/01 09:01:34;;;;;;;7.23;6.10;;;14.90;99.90;;;;;;5064329;28;20201;-51
2022/05/01 09:04:04;;;;;;;8.57;6.13;;;14.80;99.90;;;;;;5064401;28;20287;-50
2022/05/01 09:06:33;;;;;;;8.37;6.37;;;14.70;99.90;;;;;;5066764;28;20237;-51
2022/05/01 09:09:05;;;;;;;11.33;6.40;;;14.70;99.90;;;;;;5067488;28;20205;-49
2022/05/01 09:14:55;;;;;;;12.43;6.70;;;15.00;99.90;;;;;;5008723;28;20619;-55
2022/05/01 09:17:24;;;;;;;6.90;6.20;;;15.30;99.90;;;;;;5007414;28;20728;-50
2022/05/01 09:19:54;;;;;;;8.50;5.70;;;15.40;99.90;;;;;;5044526;28;20302;-50
2022/05/01 09:22:23;;;;;;;7.95;5.75;;;15.40;99.90;;;;;;5068747;28;20266;-51
2022/05/01 09:24:53;;;;;;;7.15;5.78;;;15.30;99.90;;;;;;5064688;28;20205;-51
2022/05/01 09:27:29;;;;;;;10.00;6.25;;;15.20;99.90;;;;;;5067706;28;20278;-50
2022/05/01 09:30:12;;;;;;;8.73;6.43;;;15.20;99.90;;;;;;5062037;28;20227;-50
2022/05/01 09:32:41;;;;;;;9.90;6.43;;;15.30;99.90;;;;;;5067804;28;20219;-51
2022/05/01 09:35:15;;;;;;;8.13;7.00;;;15.30;99.90;;;;;;5068666;28;20243;-50
2022/05/01 09:37:44;;;;;;;8.95;6.40;;;15.30;99.90;;;;;;5072306;28;20224;-51
2022/05/01 09:40:13;;;;;;;8.45;6.43;;;15.40;99.90;;;;;;5071218;28;20213;-51
2022/05/01 09:42:43;;;;;;;10.73;6.60;;;15.70;99.90;;;;;;5068255;28;20258;-51
2022/05/01 09:45:13;;;;;;;9.05;6.68;;;15.80;99.90;;;;;;5068594;28;20725;-50
2022/05/01 09:47:43;;;;;;;10.00;6.03;;;15.90;99.90;;;;;;5070870;28;20208;-51
2022/05/01 09:50:14;;;;;;;8.48;6.43;;;15.70;99.90;;;;;;5069955;28;20204;-51
2022/05/01 09:52:59;;;;;;;11.65;6.65;;;15.80;99.90;;;;;;5069882;28;20205;-51
2022/05/01 09:55:28;;;;;;;8.98;6.07;;;15.60;99.90;;;;;;5070265;28;20221;-51
2022/05/01 09:58:05;;;;;;;9.85;6.63;;;15.70;99.90;;;;;;5071216;28;20212;-50
2022/05/01 10:00:40;;;;;;;9.15;6.43;;;15.80;99.90;;;;;;5068762;28;20231;-51
2022/05/01 10:03:22;;;;;;;7.93;6.57;;;16.00;99.90;;;;;;5072765;28;20216;-51
2022/05/01 10:05:52;;;;;;;7.15;6.45;;;16.00;99.90;;;;;;5072095;28;20268;-50
2022/05/01 10:08:21;;;;;;;9.18;6.05;;;15.90;99.90;;;;;;5070908;28;20284;-50
2022/05/01 10:10:51;;;;;;;8.52;6.10;;;16.00;99.90;;;;;;5072845;28;20212;-50
2022/05/01 10:13:24;;;;;;;10.18;6.95;;;16.00;99.90;;;;;;5072004;28;20217;-50
2022/05/01 10:16:06;;;;;;;9.52;6.15;;;16.20;99.90;;;;;;5072256;28;20256;-50
2022/05/01 10:18:35;;;;;;;7.18;6.25;;;16.00;99.90;;;;;;5072330;28;20213;-51
2022/05/01 10:21:04;;;;;;;10.57;7.18;;;16.00;99.90;;;;;;5071099;28;20780;-50
2022/05/01 10:23:34;;;;;;;9.60;6.68;;;15.90;99.90;;;;;;5071293;28;20266;-51
2022/05/01 10:26:09;;;;;;;7.82;6.45;;;15.90;99.90;;;;;;5075955;28;20901;-51
2022/05/01 10:29:31;;;;;;;8.00;7.03;;;15.90;99.90;;;;;;5072374;28;20213;-50
2022/05/01 10:32:29;;;;;;;9.05;7.20;;;15.80;99.90;;;;;;5069477;28;20224;-51
2022/05/01 10:35:34;;;;;;;8.27;6.53;;;15.70;99.90;;;;;;5069200;28;20232;-51
2022/05/01 10:38:16;;;;;;;7.80;7.00;;;15.90;99.90;;;;;;5068078;28;20274;-51
2022/05/01 10:40:49;;;;;;;10.73;6.88;;;15.70;99.90;;;;;;5069846;28;20895;-50
2022/05/01 10:43:28;;;;;;;11.07;7.05;;;15.70;99.90;;;;;;5069592;28;20216;-51
2022/05/01 10:46:00;;;;;;;9.70;6.93;;;15.70;99.90;;;;;;5069071;28;20231;-52
2022/05/01 10:48:39;;;;;;;9.07;6.53;;;15.60;99.90;;;;;;5070222;28;20209;-51
2022/05/01 10:51:42;;;;;;;10.95;7.18;;;15.70;99.90;;;;;;5071416;28;20212;-51
2022/05/01 10:54:35;;;;;;;9.52;7.38;;;15.80;99.90;;;;;;5069483;28;20220;-51
2022/05/01 10:57:12;;;;;;;10.10;7.13;;;15.80;99.90;;;;;;5068707;28;20282;-51
2022/05/01 10:59:46;;;;;;;11.00;6.95;;;15.70;99.90;;;;;;5068920;28;20233;-51
2022/05/01 11:02:22;;;;;;;10.35;7.15;;;15.70;99.90;;;;;;5071059;28;20204;-51
2022/05/01 11:04:52;;;;;;;8.25;6.72;;;15.80;99.90;;;;;;5069513;28;20220;-51
2022/05/01 11:07:21;;;;;;;12.55;8.00;;;15.80;99.90;;;;;;5069851;28;20232;-51
2022/05/01 11:09:50;;;;;;;12.20;7.25;;;16.10;99.90;;;;;;5071083;28;20251;-51
2022/05/01 11:12:22;;;;;;;10.35;7.60;;;16.10;99.90;;;;;;5071155;28;20666;-51
2022/05/01 11:14:52;;;;;;;7.90;6.97;;;16.20;99.90;;;;;;5070723;28;20216;-51
2022/05/01 11:17:51;;;;;;;9.48;7.38;;;16.00;99.90;;;;;;5070996;28;20672;-51
2022/05/01 11:20:31;;;;;;;11.88;7.45;;;15.80;99.90;;;;;;5071184;28;20228;-51
2022/05/01 11:23:35;;;;;;;10.07;7.43;;;15.90;99.90;;;;;;5070803;28;20708;-51
2022/05/01 11:26:17;;;;;;;8.27;7.10;;;16.00;99.90;;;;;;5070587;28;20228;-51
2022/05/01 11:28:50;;;;;;;11.00;7.32;;;16.00;99.90;;;;;;5066714;28;20197;-51
2022/05/01 11:31:47;;;;;;;11.85;7.88;;;16.00;99.90;;;;;;5064689;28;20852;-50
2022/05/01 11:34:38;;;;;;;9.02;7.85;;;16.10;99.90;;;;;;5068020;28;20716;-51
2022/05/01 11:37:09;;;;;;;11.27;8.05;;;16.10;99.90;;;;;;5057000;28;20645;-51
2022/05/01 11:40:20;;;;;;;10.70;7.30;;;16.10;99.90;;;;;;5071015;28;20209;-52
2022/05/01 11:42:50;;;;;;;10.23;7.22;;;16.20;99.90;;;;;;5070380;28;20216;-51
2022/05/01 11:45:19;;;;;;;8.52;7.40;;;16.30;99.90;;;;;;5070662;28;20274;-51
2022/05/01 11:47:55;;;;;;;13.18;7.78;;;16.40;99.90;;;;;;5070735;28;20247;-50
2022/05/01 11:50:27;;;;;;;10.55;7.47;;;16.30;99.90;;;;;;5070541;28;20214;-51
2022/05/01 11:52:58;;;;;;;10.15;7.68;;;16.30;99.90;;;;;;5070005;28;20239;-51
2022/05/01 12:03:54;;;;;;;10.52;8.00;;;16.40;99.90;;;;;;5069811;28;20223;-51
2022/05/01 12:06:25;;;;;;;8.35;7.40;;;16.50;99.90;;;;;;5070364;28;20602;-51
2022/05/01 12:08:55;;;;;;;10.38;8.15;;;16.60;99.90;;;;;;5070288;28;20263;-51
2022/05/01 12:11:32;;;;;;;9.77;7.88;;;16.60;99.90;;;;;;5070371;28;20220;-51
2022/05/01 12:14:09;;;;;;;14.65;8.38;;;16.60;99.90;;;;;;5070280;28;20201;-51
2022/05/01 12:16:37;;;;;;;11.65;7.75;;;16.60;99.90;;;;;;5069747;28;20228;-51
2022/05/01 12:19:06;;;;;;;13.32;8.00;;;16.60;99.90;;;;;;5070349;28;20209;-51
2022/05/01 12:21:36;;;;;;;12.55;8.70;;;16.60;99.90;;;;;;5069803;28;20239;-51
2022/05/01 12:24:07;;;;;;;8.73;7.57;;;16.80;99.90;;;;;;5069657;28;20213;-50
2022/05/01 12:26:38;;;;;;;10.38;7.47;;;16.90;99.90;;;;;;5069915;28;20286;-51
2022/05/01 12:29:11;;;;;;;9.82;7.78;;;17.10;99.90;;;;;;5070449;28;20224;-50
2022/05/01 12:32:01;;;;;;;11.55;7.50;;;17.30;99.90;;;;;;5070349;28;20631;-50
2022/05/01 12:34:31;;;;;;;9.18;7.80;;;17.10;99.90;;;;;;5069517;28;20704;-51
2022/05/01 12:37:00;;;;;;;10.25;7.82;;;17.10;99.90;;;;;;5070182;28;20237;-51
2022/05/01 12:39:31;;;;;;;9.85;7.78;;;17.00;99.90;;;;;;5070093;28;20727;-51
2022/05/01 12:45:10;;;;;;;9.95;8.98;;;17.10;99.90;;;;;;5069620;28;20213;-51
2022/05/01 12:47:40;;;;;;;11.90;8.60;;;17.00;99.90;;;;;;5069723;28;20258;-51
2022/05/01 12:50:10;;;;;;;9.90;8.52;;;16.90;99.90;;;;;;5069991;28;20262;-51
2022/05/01 12:52:41;;;;;;;11.80;7.72;;;16.80;99.90;;;;;;5069132;28;20292;-51
2022/05/01 12:55:16;;;;;;;12.23;7.82;;;16.80;99.90;;;;;;5069861;28;20247;-51
2022/05/01 12:57:51;;;;;;;12.18;7.50;;;16.80;99.90;;;;;;5069507;28;20700;-51
2022/05/01 13:00:34;;;;;;;10.23;7.90;;;16.90;99.90;;;;;;5069930;28;20208;-51
2022/05/01 13:03:20;;;;;;;11.02;7.32;;;16.90;99.90;;;;;;5068942;28;20209;-51
2022/05/01 13:05:59;;;;;;;9.30;8.27;;;17.10;99.90;;;;;;5069955;28;20236;-50
2022/05/01 13:08:30;;;;;;;9.63;8.38;;;17.10;99.90;;;;;;5069747;28;20208;-51
2022/05/01 13:11:17;;;;;;;10.35;8.35;;;17.10;99.90;;;;;;5072589;28;20209;-51
2022/05/01 13:13:48;;;;;;;10.18;8.10;;;17.00;99.90;;;;;;5073816;28;20216;-49
2022/05/01 13:16:19;;;;;;;8.73;7.28;;;17.00;99.90;;;;;;5073478;28;20290;-51
2022/05/01 13:18:47;;;;;;;9.75;8.02;;;17.10;99.90;;;;;;5073225;28;20666;-49
2022/05/01 13:21:16;;;;;;;12.15;7.82;;;17.00;99.90;;;;;;5073046;28;20904;-50
2022/05/01 13:23:45;;;;;;;10.52;8.63;;;16.90;99.90;;;;;;5072968;28;20216;-51
2022/05/01 13:26:15;;;;;;;11.70;8.50;;;16.90;99.90;;;;;;5073140;28;20251;-50
2022/05/01 13:28:44;;;;;;;9.05;7.18;;;16.80;99.90;;;;;;5073153;28;20239;-51
2022/05/01 13:31:13;;;;;;;10.68;7.38;;;16.70;99.90;;;;;;5073212;28;20258;-51
2022/05/01 13:33:42;;;;;;;9.45;7.82;;;16.80;99.90;;;;;;5072128;28;20267;-51
2022/05/01 13:36:10;;;;;;;14.32;9.02;;;16.80;99.90;;;;;;5072988;28;20721;-51
2022/05/01 13:38:39;;;;;;;10.48;9.38;;;16.80;99.90;;;;;;5072781;28;20328;-51
2022/05/01 13:46:40;;;;;;;8.80;7.90;;;17.10;99.90;;;;;;5072422;28;20232;-50
2022/05/01 13:49:08;;;;;;;10.73;8.18;;;17.30;99.90;;;;;;5073190;28;20232;-51